createdAt,value
2022-10-19T00:00:05.506Z,15.88
2022-10-19T00:02:55.502Z,15.87
2022-10-19T00:05:23.321Z,15.87
2022-10-19T00:07:51.124Z,15.88
2022-10-19T00:10:18.988Z,15.90
2022-10-19T00:15:55.303Z,15.89
2022-10-19T00:18:23.050Z,15.88
2022-10-19T00:20:51.917Z,15.85
2022-10-19T00:23:23.287Z,15.83
2022-10-19T00:25:56.629Z,15.82
2022-10-19T00:28:24.568Z,15.83
2022-10-19T00:30:52.826Z,15.83
2022-10-19T00:33:25.373Z,15.83
2022-10-19T00:36:02.103Z,15.82
2022-10-19T00:38:31.023Z,15.80
2022-10-19T00:41:02.514Z,15.75
2022-10-19T00:43:31.768Z,15.71
2022-10-19T00:46:05.375Z,15.71
2022-10-19T00:48:34.444Z,15.75
2022-10-19T00:51:09.572Z,15.79
2022-10-19T00:53:45.446Z,15.81
2022-10-19T00:56:21.418Z,15.82
2022-10-19T00:58:57.413Z,15.83
2022-10-19T01:01:27.394Z,15.81
2022-10-19T01:03:55.247Z,15.76
2022-10-19T01:06:28.452Z,15.73
2022-10-19T01:08:57.393Z,15.71
2022-10-19T01:11:53.771Z,15.70
2022-10-19T01:14:59.103Z,15.69
2022-10-19T01:17:39.539Z,15.68
2022-10-19T01:20:27.215Z,15.64
2022-10-19T01:23:25.766Z,15.60
2022-10-19T01:26:19.197Z,15.59
2022-10-19T01:28:54.056Z,15.57
2022-10-19T01:31:48.352Z,15.57
2022-10-19T01:34:33.165Z,15.58
2022-10-19T01:37:28.441Z,15.60
2022-10-19T01:40:12.698Z,15.63
2022-10-19T01:43:01.359Z,15.64
2022-10-19T01:45:44.720Z,15.64
2022-10-19T01:48:31.109Z,15.64
2022-10-19T01:51:11.442Z,15.63
2022-10-19T01:53:49.146Z,15.62
2022-10-19T01:56:23.677Z,15.61
2022-10-19T01:59:06.360Z,15.62
2022-10-19T02:01:38.780Z,15.63
2022-10-19T02:04:11.313Z,15.63
2022-10-19T02:06:41.665Z,15.62
2022-10-19T02:09:17.894Z,15.63
2022-10-19T02:11:53.416Z,15.65
2022-10-19T02:14:31.935Z,15.65
2022-10-19T02:17:05.342Z,15.61
2022-10-19T02:19:35.439Z,15.59
2022-10-19T02:22:14.419Z,15.59
2022-10-19T02:24:50.460Z,15.58
2022-10-19T02:27:26.002Z,15.58
2022-10-19T02:29:55.745Z,15.59
2022-10-19T02:32:28.390Z,15.59
2022-10-19T02:35:02.010Z,15.57
2022-10-19T02:37:32.308Z,15.56
2022-10-19T02:40:01.180Z,15.54
2022-10-19T02:42:54.376Z,15.53
2022-10-19T02:45:31.025Z,15.44
2022-10-19T02:48:05.046Z,15.39
2022-10-19T02:50:33.322Z,15.38
2022-10-19T02:53:01.557Z,15.37
2022-10-19T02:55:30.792Z,15.36
2022-10-19T02:58:02.270Z,15.34
2022-10-19T03:00:31.188Z,15.33
2022-10-19T03:03:02.923Z,15.32
2022-10-19T03:05:30.820Z,15.30
2022-10-19T03:08:00.684Z,15.27
2022-10-19T03:10:37.488Z,15.19
2022-10-19T03:13:12.314Z,15.10
2022-10-19T03:15:40.083Z,15.01
2022-10-19T03:18:13.256Z,14.91
2022-10-19T03:20:42.138Z,14.77
2022-10-19T03:23:11.027Z,14.67
2022-10-19T03:25:40.855Z,14.62
2022-10-19T03:28:08.685Z,14.59
2022-10-19T03:30:46.423Z,14.53
2022-10-19T03:33:20.496Z,14.41
2022-10-19T03:35:48.429Z,14.32
2022-10-19T03:38:17.475Z,14.26
2022-10-19T03:40:51.564Z,14.21
2022-10-19T03:43:20.435Z,14.19
2022-10-19T03:45:48.416Z,14.16
2022-10-19T03:48:22.412Z,14.13
2022-10-19T03:51:10.510Z,14.09
2022-10-19T03:53:40.637Z,14.05
2022-10-19T03:56:12.532Z,14.02
2022-10-19T03:58:42.101Z,13.97
2022-10-19T04:01:21.232Z,13.94
2022-10-19T04:03:56.133Z,13.90
2022-10-19T04:06:29.554Z,13.84
2022-10-19T04:08:59.481Z,13.76
2022-10-19T04:11:30.423Z,13.71
2022-10-19T04:14:32.482Z,13.67
2022-10-19T04:17:02.779Z,13.64
2022-10-19T04:19:38.405Z,13.62
2022-10-19T04:22:07.156Z,13.62
2022-10-19T04:24:37.061Z,13.61
2022-10-19T04:27:06.313Z,13.59
2022-10-19T04:29:37.239Z,13.55
2022-10-19T04:32:07.049Z,13.51
2022-10-19T04:34:37.664Z,13.48
2022-10-19T04:37:14.292Z,13.45
2022-10-19T04:39:43.395Z,13.40
2022-10-19T04:42:21.407Z,13.36
2022-10-19T04:44:51.365Z,13.28
2022-10-19T04:47:21.206Z,13.20
2022-10-19T04:49:52.379Z,13.13
2022-10-19T04:52:22.579Z,13.11
2022-10-19T04:54:50.412Z,13.08
2022-10-19T04:57:24.358Z,13.05
2022-10-19T04:59:59.438Z,13.04
2022-10-19T05:02:37.438Z,13.03
2022-10-19T05:05:05.765Z,13.03
2022-10-19T05:07:34.944Z,13.04
2022-10-19T05:10:04.068Z,13.03
2022-10-19T05:12:34.199Z,13.03
2022-10-19T05:15:05.798Z,13.02
2022-10-19T05:17:33.887Z,13.03
2022-10-19T05:20:11.382Z,13.04
2022-10-19T05:22:40.550Z,13.02
2022-10-19T05:25:09.126Z,13.01
2022-10-19T05:27:38.932Z,12.99
2022-10-19T05:30:14.781Z,12.98
2022-10-19T05:32:44.838Z,13.00
2022-10-19T05:35:16.387Z,13.03
2022-10-19T05:37:48.671Z,13.05
2022-10-19T05:40:17.449Z,13.08
2022-10-19T05:42:52.375Z,13.12
2022-10-19T05:45:21.272Z,13.16
2022-10-19T05:47:51.047Z,13.22
2022-10-19T05:50:20.012Z,13.30
2022-10-19T05:52:47.850Z,13.39
2022-10-19T05:55:20.299Z,13.47
2022-10-19T05:57:49.291Z,13.54
2022-10-19T06:00:20.424Z,13.59
2022-10-19T06:02:58.966Z,13.66
2022-10-19T06:05:31.398Z,13.72
2022-10-19T06:08:05.311Z,13.75
2022-10-19T06:10:34.014Z,13.76
2022-10-19T06:13:06.370Z,13.79
2022-10-19T06:15:36.376Z,13.83
2022-10-19T06:18:05.125Z,13.84
2022-10-19T06:20:42.416Z,13.87
2022-10-19T06:23:12.329Z,13.92
2022-10-19T06:25:47.569Z,13.98
2022-10-19T06:28:16.487Z,14.03
2022-10-19T06:30:45.361Z,14.10
2022-10-19T06:33:19.523Z,14.17
2022-10-19T06:36:26.521Z,14.23
2022-10-19T06:39:01.881Z,14.28
2022-10-19T06:41:31.306Z,14.33
2022-10-19T06:44:01.887Z,14.34
2022-10-19T06:46:32.239Z,14.36
2022-10-19T06:49:04.344Z,14.37
2022-10-19T06:51:35.614Z,14.37
2022-10-19T06:54:04.481Z,14.36
2022-10-19T06:56:39.369Z,14.33
2022-10-19T06:59:17.613Z,14.32
2022-10-19T07:01:49.231Z,14.31
2022-10-19T07:04:17.126Z,14.33
2022-10-19T07:06:45.964Z,14.37
2022-10-19T07:09:13.771Z,14.39
2022-10-19T07:11:46.196Z,14.43
2022-10-19T07:14:21.345Z,14.49
2022-10-19T07:16:50.549Z,14.51
2022-10-19T07:19:26.989Z,14.50
2022-10-19T07:21:55.841Z,14.49
2022-10-19T07:24:23.844Z,14.57
2022-10-19T07:26:52.649Z,14.72
2022-10-19T07:29:21.945Z,14.78
2022-10-19T07:31:50.897Z,14.74
2022-10-19T07:34:23.146Z,14.85
2022-10-19T07:36:59.359Z,15.50
2022-10-19T07:39:28.212Z,16.25
2022-10-19T07:41:57.164Z,16.74
2022-10-19T07:44:26.449Z,16.97
2022-10-19T07:47:01.406Z,16.95
2022-10-19T07:49:37.533Z,16.74
2022-10-19T07:52:05.465Z,16.39
2022-10-19T07:54:33.072Z,16.10
2022-10-19T07:57:03.477Z,15.85
2022-10-19T07:59:32.648Z,15.62
2022-10-19T08:02:04.677Z,15.52
2022-10-19T08:05:00.383Z,15.39
2022-10-19T08:07:21.553Z,15.28
2022-10-19T08:09:54.309Z,15.20
2022-10-19T08:12:23.492Z,15.10
2022-10-19T08:14:53.965Z,15.05
2022-10-19T08:17:21.805Z,15.02
2022-10-19T08:19:51.749Z,14.96
2022-10-19T08:22:21.561Z,14.83
2022-10-19T08:24:51.372Z,14.63
2022-10-19T08:27:19.020Z,14.50
2022-10-19T08:29:48.836Z,14.78
2022-10-19T08:32:24.584Z,15.73
2022-10-19T08:34:52.478Z,16.61
2022-10-19T08:37:40.622Z,16.90
2022-10-19T08:40:28.392Z,16.64
2022-10-19T08:43:34.413Z,16.21
2022-10-19T08:46:18.533Z,15.69
2022-10-19T08:48:57.692Z,15.32
2022-10-19T08:51:37.631Z,15.04
2022-10-19T08:54:13.804Z,14.84
2022-10-19T08:57:15.620Z,14.72
2022-10-19T09:00:02.804Z,14.62
2022-10-19T09:02:54.798Z,14.58
2022-10-19T09:05:50.551Z,14.52
2022-10-19T09:08:21.069Z,14.51
2022-10-19T09:10:54.990Z,14.57
2022-10-19T09:14:04.270Z,14.67
2022-10-19T09:16:37.292Z,14.84
2022-10-19T09:19:25.852Z,14.87
2022-10-19T09:22:02.998Z,14.83
2022-10-19T09:24:51.771Z,14.77
2022-10-19T09:27:35.701Z,14.76
2022-10-19T09:30:23.518Z,14.87
2022-10-19T09:33:02.788Z,14.94
2022-10-19T09:35:43.566Z,14.96
2022-10-19T09:38:16.907Z,14.92
2022-10-19T09:40:47.237Z,14.87
2022-10-19T09:43:20.807Z,14.81
2022-10-19T09:46:19.985Z,14.70
2022-10-19T09:48:55.748Z,14.63
2022-10-19T09:51:25.709Z,14.58
2022-10-19T09:53:56.046Z,14.49
2022-10-19T09:56:27.335Z,14.42
2022-10-19T09:58:57.865Z,14.34
2022-10-19T10:01:41.556Z,14.26
2022-10-19T10:04:17.309Z,14.21
2022-10-19T10:06:48.203Z,14.20
2022-10-19T10:09:26.035Z,14.13
2022-10-19T10:11:56.982Z,14.09
2022-10-19T10:14:33.377Z,14.09
2022-10-19T10:17:18.263Z,14.09
2022-10-19T10:20:03.455Z,14.09
2022-10-19T10:22:36.031Z,14.08
2022-10-19T10:25:13.810Z,14.10
2022-10-19T10:27:41.701Z,14.07
2022-10-19T10:30:18.765Z,14.04
2022-10-19T10:33:04.615Z,14.07
2022-10-19T10:35:53.552Z,14.16
2022-10-19T10:38:26.360Z,14.25
2022-10-19T10:41:01.101Z,14.29
2022-10-19T10:43:33.205Z,14.30
2022-10-19T10:46:07.877Z,14.30
2022-10-19T10:48:43.120Z,14.28
2022-10-19T10:51:22.045Z,14.28
2022-10-19T10:53:50.962Z,14.23
2022-10-19T10:56:29.869Z,14.17
2022-10-19T10:59:32.995Z,14.14
2022-10-19T11:02:13.045Z,14.16
2022-10-19T11:04:52.169Z,14.18
2022-10-19T11:07:26.148Z,14.22
2022-10-19T11:10:02.727Z,14.29
2022-10-19T11:13:02.065Z,14.33
2022-10-19T11:15:52.545Z,14.36
2022-10-19T11:18:32.564Z,14.39
2022-10-19T11:21:02.417Z,14.46
2022-10-19T11:23:35.406Z,14.53
2022-10-19T11:26:32.555Z,14.66
2022-10-19T11:29:21.893Z,14.90
2022-10-19T11:31:53.345Z,15.05
2022-10-19T11:34:33.352Z,15.11
2022-10-19T11:37:30.732Z,15.07
2022-10-19T11:40:22.130Z,14.98
2022-10-19T11:43:07.019Z,14.84
2022-10-19T11:45:42.839Z,14.71
2022-10-19T11:48:43.774Z,14.66
2022-10-19T11:51:22.897Z,14.67
2022-10-19T11:54:19.303Z,14.72
2022-10-19T11:57:07.311Z,14.76
2022-10-19T12:00:15.228Z,14.76
2022-10-19T12:03:03.838Z,14.72
2022-10-19T12:05:42.340Z,14.70
2022-10-19T12:08:25.617Z,14.67
2022-10-19T12:11:02.707Z,14.72
2022-10-19T12:13:48.786Z,14.77
2022-10-19T12:16:19.295Z,14.82
2022-10-19T12:18:55.473Z,14.80
2022-10-19T12:21:43.165Z,14.74
2022-10-19T12:24:22.634Z,14.74
2022-10-19T12:26:54.905Z,14.75
2022-10-19T12:29:35.912Z,14.73
2022-10-19T12:32:07.284Z,14.69
2022-10-19T12:34:39.229Z,14.67
2022-10-19T12:37:27.142Z,14.61
2022-10-19T12:40:00.153Z,14.51
2022-10-19T12:42:42.076Z,14.43
2022-10-19T12:45:36.525Z,14.36
2022-10-19T12:48:08.591Z,14.29
2022-10-19T12:50:49.790Z,14.23
2022-10-19T12:53:23.800Z,14.23
2022-10-19T12:55:59.325Z,14.26
2022-10-19T12:58:34.335Z,14.31
2022-10-19T13:01:18.273Z,14.37
2022-10-19T13:03:51.535Z,14.45
2022-10-19T13:06:23.594Z,14.52
2022-10-19T13:08:53.552Z,14.59
2022-10-19T13:11:22.759Z,14.63
2022-10-19T13:14:12.130Z,14.67
2022-10-19T13:17:02.004Z,14.68
2022-10-19T13:19:34.696Z,14.59
2022-10-19T13:22:02.597Z,14.49
2022-10-19T13:24:34.647Z,14.41
2022-10-19T13:27:27.058Z,14.31
2022-10-19T13:29:55.377Z,14.28
2022-10-19T13:32:43.650Z,14.29
2022-10-19T13:35:34.760Z,14.24
2022-10-19T13:38:17.006Z,14.20
2022-10-19T13:40:48.951Z,14.22
2022-10-19T13:43:23.694Z,14.29
2022-10-19T13:46:10.124Z,14.30
2022-10-19T13:49:03.782Z,14.28
2022-10-19T13:51:46.137Z,14.27
2022-10-19T13:54:36.006Z,14.24
2022-10-19T13:57:17.857Z,14.21
2022-10-19T13:59:54.983Z,14.16
2022-10-19T14:02:58.784Z,14.11
2022-10-19T14:05:54.427Z,14.07
2022-10-19T14:09:05.408Z,14.06
2022-10-19T14:12:17.684Z,14.05
2022-10-19T14:14:45.577Z,14.03
2022-10-19T14:17:21.202Z,13.99
2022-10-19T14:20:00.674Z,13.94
2022-10-19T14:22:31.053Z,13.87
2022-10-19T14:25:02.954Z,13.79
2022-10-19T14:27:35.156Z,13.73
2022-10-19T14:30:35.703Z,13.70
2022-10-19T14:33:11.970Z,13.62
2022-10-19T14:35:45.042Z,13.50
2022-10-19T14:38:26.341Z,13.40
2022-10-19T14:40:55.842Z,13.33
2022-10-19T14:43:30.204Z,13.31
2022-10-19T14:46:18.747Z,13.25
2022-10-19T14:48:50.529Z,13.18
2022-10-19T14:51:43.011Z,13.16
2022-10-19T14:54:19.151Z,13.18
2022-10-19T14:56:49.645Z,13.23
2022-10-19T14:59:36.432Z,13.27
2022-10-19T15:02:25.360Z,13.30
2022-10-19T15:04:58.110Z,13.32
2022-10-19T15:07:30.184Z,13.28
2022-10-19T15:10:16.591Z,13.22
2022-10-19T15:12:45.870Z,13.17
2022-10-19T15:15:30.720Z,13.15
2022-10-19T15:18:01.665Z,13.12
2022-10-19T15:20:49.392Z,13.06
2022-10-19T15:23:42.113Z,12.99
2022-10-19T15:26:17.253Z,12.92
2022-10-19T15:28:46.641Z,12.91
2022-10-19T15:31:27.794Z,12.90
2022-10-19T15:34:02.009Z,12.89
2022-10-19T15:36:34.628Z,12.84
2022-10-19T15:39:18.344Z,12.80
2022-10-19T15:41:55.216Z,12.77
2022-10-19T15:44:42.969Z,12.75
2022-10-19T15:47:19.183Z,12.74
2022-10-19T15:49:56.844Z,12.72
2022-10-19T15:52:37.389Z,12.69
2022-10-19T15:55:11.839Z,12.67
2022-10-19T15:57:40.789Z,12.66
2022-10-19T16:00:18.024Z,12.66
2022-10-19T16:02:45.823Z,12.66
2022-10-19T16:05:14.031Z,12.65
2022-10-19T16:07:43.888Z,12.62
2022-10-19T16:10:20.378Z,12.62
2022-10-19T16:12:49.706Z,12.59
2022-10-19T16:15:23.508Z,12.56
2022-10-19T16:17:54.919Z,12.54
2022-10-19T16:20:30.591Z,12.54
2022-10-19T16:22:59.514Z,12.56
2022-10-19T16:25:33.497Z,12.59
2022-10-19T16:28:09.297Z,12.62
2022-10-19T16:30:38.107Z,12.63
2022-10-19T16:33:07.053Z,12.61
2022-10-19T16:35:39.581Z,12.57
2022-10-19T16:38:08.548Z,12.54
2022-10-19T16:40:44.401Z,12.58
2022-10-19T16:43:15.274Z,12.58
2022-10-19T16:45:44.771Z,12.56
2022-10-19T16:48:13.476Z,12.55
2022-10-19T16:53:23.518Z,12.61
2022-10-19T16:55:52.529Z,12.63
2022-10-19T16:58:20.301Z,12.65
2022-10-19T17:00:49.542Z,12.68
2022-10-19T17:03:23.546Z,12.71
2022-10-19T17:05:52.633Z,12.74
2022-10-19T17:08:23.899Z,12.75
2022-10-19T17:10:55.534Z,12.77
2022-10-19T17:13:23.723Z,12.81
2022-10-19T17:15:53.818Z,12.84
2022-10-19T17:18:21.901Z,12.88
2022-10-19T17:26:03.414Z,12.85
2022-10-19T17:28:32.896Z,12.97
2022-10-19T17:31:09.518Z,12.95
2022-10-19T17:33:40.835Z,12.81
2022-10-19T17:36:12.977Z,12.76
2022-10-19T17:38:49.707Z,12.65
2022-10-19T17:41:22.351Z,12.58
2022-10-19T17:43:58.412Z,12.55
2022-10-19T17:46:34.639Z,12.53
2022-10-19T17:49:03.643Z,12.50
2022-10-19T17:51:35.877Z,12.46
2022-10-19T17:54:07.978Z,12.44
2022-10-19T17:56:38.624Z,12.43
2022-10-19T17:59:08.980Z,12.38
2022-10-19T18:01:43.833Z,12.35
2022-10-19T18:04:15.629Z,12.31
2022-10-19T18:06:43.899Z,12.27
2022-10-19T18:09:20.390Z,12.24
2022-10-19T18:12:07.583Z,12.21
2022-10-19T18:14:42.065Z,12.20
2022-10-19T18:17:31.266Z,12.21
2022-10-19T18:20:13.224Z,12.24
2022-10-19T18:22:50.180Z,12.24
2022-10-19T18:25:49.325Z,12.19
2022-10-19T18:28:24.449Z,12.24
2022-10-19T18:30:57.251Z,12.23
2022-10-19T18:33:32.860Z,12.21
2022-10-19T18:48:30.803Z,12.02
2022-10-19T18:51:06.700Z,11.94
2022-10-19T18:53:44.972Z,11.89
2022-10-19T18:56:22.487Z,11.89
2022-10-19T18:58:54.527Z,11.90
2022-10-19T19:01:27.858Z,11.86
2022-10-19T19:04:09.723Z,11.81
2022-10-19T19:06:40.136Z,11.77
2022-10-19T19:09:12.021Z,11.75
2022-10-19T19:11:42.316Z,11.76
2022-10-19T19:14:18.557Z,11.79
2022-10-19T19:16:48.211Z,11.78
2022-10-19T19:19:18.619Z,11.73
2022-10-19T19:21:49.996Z,11.58
2022-10-19T19:24:23.535Z,11.55
2022-10-19T19:26:55.292Z,11.46
2022-10-19T19:29:57.510Z,11.38
2022-10-19T19:32:32.189Z,11.23
2022-10-19T19:35:03.677Z,11.18
2022-10-19T19:37:35.660Z,11.11
2022-10-19T19:40:04.410Z,10.96
2022-10-19T19:42:32.650Z,11.03
2022-10-19T19:45:02.151Z,11.06
2022-10-19T19:47:33.278Z,11.11
2022-10-19T19:50:04.155Z,11.19
2022-10-19T19:52:34.851Z,11.29
2022-10-19T19:55:07.161Z,11.34
2022-10-19T19:57:38.668Z,11.35
2022-10-19T20:00:09.296Z,11.33
2022-10-19T20:02:41.413Z,11.30
2022-10-19T20:05:15.553Z,11.28
2022-10-19T20:07:43.400Z,11.23
2022-10-19T20:10:18.200Z,11.20
2022-10-19T20:12:46.993Z,11.11
2022-10-19T20:15:17.032Z,11.12
2022-10-19T20:17:45.682Z,11.14
2022-10-19T20:20:19.488Z,11.14
2022-10-19T20:22:49.818Z,11.18
2022-10-19T20:25:18.192Z,11.19
2022-10-19T20:27:51.372Z,11.17
2022-10-19T20:30:23.640Z,11.15
2022-10-19T20:32:55.390Z,11.12
2022-10-19T20:35:30.445Z,11.09
2022-10-19T20:37:59.411Z,11.07
2022-10-19T20:43:01.419Z,10.99
2022-10-19T20:45:33.477Z,10.95
2022-10-19T20:48:09.426Z,10.91
2022-10-19T20:50:44.593Z,10.86
2022-10-19T20:53:12.682Z,10.82
2022-10-19T20:55:41.436Z,10.78
2022-10-19T20:58:10.365Z,10.75
2022-10-19T21:00:41.398Z,10.69
2022-10-19T21:03:16.521Z,10.61
2022-10-19T21:05:46.529Z,10.51
2022-10-19T21:08:21.487Z,10.42
2022-10-19T21:10:50.413Z,10.35
2022-10-19T21:13:55.619Z,10.31
2022-10-19T21:16:30.291Z,10.24
2022-10-19T21:18:58.131Z,10.17
2022-10-19T21:21:34.832Z,10.12
2022-10-19T21:24:06.925Z,10.06
2022-10-19T21:26:36.542Z,9.99
2022-10-19T21:29:14.025Z,9.93
2022-10-19T21:31:48.711Z,9.86
2022-10-19T21:34:25.228Z,9.80
2022-10-19T21:36:54.042Z,9.77
2022-10-19T21:39:31.613Z,9.74
2022-10-19T21:42:09.548Z,9.71
2022-10-19T21:44:39.497Z,9.67
2022-10-19T21:47:13.458Z,9.65
2022-10-19T21:49:47.516Z,9.65
2022-10-19T21:52:16.470Z,9.65
2022-10-19T21:54:46.393Z,9.66
2022-10-19T21:57:47.568Z,9.68
2022-10-19T22:00:22.457Z,9.68
2022-10-19T22:07:17.646Z,9.67
2022-10-19T22:09:49.307Z,9.66
2022-10-19T22:12:19.043Z,9.65
2022-10-19T22:14:52.935Z,9.63
2022-10-19T22:17:20.732Z,9.61
2022-10-19T22:20:22.552Z,9.58
2022-10-19T22:22:58.521Z,9.55
2022-10-19T22:25:35.235Z,9.53
2022-10-19T22:28:08.599Z,9.54
2022-10-19T22:30:38.558Z,9.54
2022-10-19T22:33:08.283Z,9.55
2022-10-19T22:35:52.980Z,9.53
2022-10-19T22:38:22.081Z,9.49
2022-10-19T22:40:51.065Z,9.47
2022-10-19T22:43:26.481Z,9.44
2022-10-19T22:46:00.555Z,9.42
2022-10-19T22:48:35.557Z,9.38
2022-10-19T22:51:11.566Z,9.36
2022-10-19T22:53:41.561Z,9.34
2022-10-19T22:56:14.093Z,9.34
2022-10-19T22:58:41.802Z,9.33
2022-10-19T23:01:18.209Z,9.30
2022-10-19T23:03:51.477Z,9.25
2022-10-19T23:06:27.620Z,9.23
2022-10-19T23:08:55.840Z,9.22
2022-10-19T23:11:25.776Z,9.20
2022-10-19T23:13:53.709Z,9.11
2022-10-19T23:16:29.931Z,9.13
2022-10-19T23:18:57.706Z,9.12
2022-10-19T23:21:26.828Z,9.10
2022-10-19T23:23:55.840Z,9.06
2022-10-19T23:26:33.466Z,9.03
2022-10-19T23:29:02.277Z,9.00
2022-10-19T23:31:30.652Z,8.98
2022-10-19T23:33:59.549Z,8.93
2022-10-19T23:36:29.474Z,8.93
2022-10-19T23:39:02.547Z,8.93
2022-10-19T23:41:37.534Z,8.91
2022-10-19T23:44:06.092Z,8.88
2022-10-19T23:46:35.014Z,8.86
2022-10-19T23:49:03.864Z,8.84
2022-10-19T23:51:33.703Z,8.81
2022-10-19T23:54:02.541Z,8.78
2022-10-19T23:56:32.605Z,8.74
2022-10-19T23:59:02.884Z,8.71
